createdAt,value
2016-04-09T00:00:37.617Z,62.72
2016-04-09T00:01:37.792Z,62.05
2016-04-09T00:02:37.795Z,61.87
2016-04-09T00:03:37.609Z,62.24
2016-04-09T00:04:37.800Z,62.72
2016-04-09T00:05:37.583Z,62.24
2016-04-09T00:06:37.586Z,62.24
2016-04-09T00:07:37.589Z,62.15
2016-04-09T00:08:37.608Z,62.62
2016-04-09T00:09:51.892Z,62.78
2016-04-09T00:10:38.003Z,62.69
2016-04-09T00:11:37.600Z,62.05
2016-04-09T00:12:37.602Z,62.15
2016-04-09T00:13:37.589Z,62.4
2016-04-09T00:14:37.592Z,62.5
2016-04-09T00:15:38.017Z,62.5
2016-04-09T00:16:37.597Z,62.69
2016-04-09T00:17:37.600Z,62.69
2016-04-09T00:18:37.602Z,62.78
2016-04-09T00:19:37.808Z,62.69
2016-04-09T00:20:37.155Z,62.59
2016-04-09T00:21:37.596Z,62.69
2016-04-09T00:22:37.614Z,63.17
2016-04-09T00:24:37.838Z,63.07
2016-04-09T00:25:37.637Z,63.07
2016-04-09T00:26:37.671Z,63.26
2016-04-09T00:27:37.596Z,62.97
2016-04-09T00:28:37.598Z,62.78
2016-04-09T00:29:37.601Z,63.64
2016-04-09T00:30:37.603Z,63.07
2016-04-09T00:31:37.637Z,63.07
2016-04-09T00:32:37.640Z,63.73
2016-04-09T00:33:37.861Z,63.45
2016-04-09T00:34:37.614Z,63.64
2016-04-09T00:35:52.117Z,63.64
2016-04-09T00:36:37.651Z,63.45
2016-04-09T00:37:37.607Z,62.97
2016-04-09T00:38:37.813Z,63.54
2016-04-09T00:40:37.614Z,63.73
2016-04-09T00:42:37.620Z,63.26
2016-04-09T00:43:37.655Z,63.54
2016-04-09T00:44:37.626Z,63.83
2016-04-09T00:45:37.629Z,63.45
2016-04-09T00:46:37.631Z,63.35
2016-04-09T00:47:37.634Z,64.02
2016-04-09T00:49:37.827Z,64.02
2016-04-09T00:50:37.830Z,65.63
2016-04-09T00:51:37.613Z,65.06
2016-04-09T00:52:37.616Z,64.87
2016-04-09T00:53:37.618Z,65.06
2016-04-09T00:54:37.637Z,64.69
2016-04-09T00:55:37.827Z,65.16
2016-04-09T00:56:37.642Z,65.16
2016-04-09T00:57:37.630Z,65.25
2016-04-09T00:58:37.632Z,64.78
2016-04-09T00:59:37.651Z,65.16
2016-04-09T01:00:37.623Z,64.97
2016-04-09T01:01:37.625Z,64.97
2016-04-09T01:02:37.831Z,64.87
2016-04-09T01:04:37.633Z,64.87
2016-04-09T01:05:37.667Z,64.87
2016-04-09T01:06:37.825Z,65.06
2016-04-09T01:07:37.641Z,64.87
2016-04-09T01:08:37.689Z,64.97
2016-04-09T01:09:37.630Z,64.97
2016-04-09T01:10:37.633Z,65.25
2016-04-09T01:12:37.639Z,64.97
2016-04-09T01:13:37.626Z,64.4
2016-04-09T01:14:37.644Z,64.59
2016-04-09T01:15:37.631Z,64.65
2016-04-09T01:16:37.633Z,64.84
2016-04-09T01:17:37.652Z,64.17
2016-04-09T01:18:37.655Z,64.17
2016-04-09T01:19:37.641Z,64.17
2016-04-09T01:20:37.630Z,63.79
2016-04-09T01:21:38.038Z,64.17
2016-04-09T01:22:37.635Z,64.94
2016-04-09T01:23:37.622Z,64.65
2016-04-09T01:24:37.640Z,65.12
2016-04-09T01:25:37.643Z,64.94
2016-04-09T01:26:37.645Z,65.03
2016-04-09T01:27:37.648Z,64.84
2016-04-09T01:28:37.666Z,64.84
2016-04-09T01:29:37.637Z,65.22
2016-04-09T01:30:37.640Z,65.03
2016-04-09T01:31:37.876Z,65.31
2016-04-09T01:32:37.645Z,64.84
2016-04-09T01:33:37.632Z,65.12
2016-04-09T01:34:37.635Z,65.22
2016-04-09T01:35:37.685Z,65.5
2016-04-09T01:36:37.641Z,65.6
2016-04-09T01:37:37.634Z,65.79
2016-04-09T01:38:37.637Z,66.08
2016-04-09T01:39:37.623Z,65.5
2016-04-09T01:40:37.626Z,65.88
2016-04-09T01:41:37.629Z,65.6
2016-04-09T01:42:37.865Z,65.79
2016-04-09T01:43:37.478Z,65.98
2016-04-09T01:44:37.636Z,65.6
2016-04-09T01:45:37.873Z,65.5
2016-04-09T01:46:37.642Z,65.69
2016-04-09T01:47:37.629Z,65.69
2016-04-09T01:48:37.632Z,65.88
2016-04-09T01:49:37.635Z,65.69
2016-04-09T01:50:37.637Z,65.69
2016-04-09T01:51:38.031Z,65.31
2016-04-09T01:52:37.627Z,65.5
2016-04-09T01:53:37.833Z,66.08
2016-04-09T01:54:37.617Z,65.5
2016-04-09T01:55:37.635Z,65.69
2016-04-09T01:56:37.638Z,65.6
2016-04-09T01:57:37.640Z,65.41
2016-04-09T01:58:37.627Z,65.79
2016-04-09T01:59:37.630Z,66.08
2016-04-09T02:00:37.633Z,65.69
2016-04-09T02:01:37.667Z,65.5
2016-04-09T02:02:37.857Z,65.69
2016-04-09T02:03:37.829Z,65.88
2016-04-09T02:04:37.643Z,65.69
2016-04-09T02:05:37.881Z,65.88
2016-04-09T02:06:37.634Z,65.98
2016-04-09T02:07:37.636Z,65.6
2016-04-09T02:08:37.639Z,65.5
2016-04-09T02:10:37.628Z,66.17
2016-04-09T02:11:37.850Z,65.41
2016-04-09T02:12:37.618Z,65.69
2016-04-09T02:13:37.870Z,65.88
2016-04-09T02:14:37.640Z,65.79
2016-04-09T02:16:37.629Z,65.88
2016-04-09T02:17:37.679Z,66.08
2016-04-09T02:18:37.634Z,65.88
2016-04-09T02:19:37.169Z,65.79
2016-04-09T02:20:37.639Z,65.88
2016-04-09T02:21:37.845Z,65.69
2016-04-09T02:22:37.833Z,66.17
2016-04-09T02:24:37.839Z,65.6
2016-04-09T02:25:37.622Z,65.85
2016-04-09T02:26:37.641Z,65.88
2016-04-09T02:27:37.816Z,65.95
2016-04-09T02:28:37.630Z,65.88
2016-04-09T02:29:37.836Z,66.52
2016-04-09T02:30:51.916Z,66.55
2016-04-09T02:31:37.622Z,65.95
2016-04-09T02:32:37.874Z,66.23
2016-04-09T02:33:37.674Z,66.61
2016-04-09T02:34:37.615Z,66.71
2016-04-09T02:35:37.820Z,66.33
2016-04-09T02:36:37.635Z,66.23
2016-04-09T02:37:37.623Z,66.04
2016-04-09T02:38:37.626Z,66.14
2016-04-09T02:39:37.629Z,66.33
2016-04-09T02:40:37.632Z,66.14
2016-04-09T02:42:37.621Z,66.61
2016-04-09T02:43:37.826Z,66.14
2016-04-09T02:44:37.845Z,66.14
2016-04-09T02:45:37.629Z,66.42
2016-04-09T02:46:37.678Z,66.33
2016-04-09T02:47:37.619Z,66.23
2016-04-09T02:48:37.622Z,66.14
2016-04-09T02:49:37.609Z,66.61
2016-04-09T02:50:37.611Z,66.61
2016-04-09T02:51:37.614Z,66.23
2016-04-09T02:52:37.617Z,66.61
2016-04-09T02:53:37.822Z,66.33
2016-04-09T02:54:38.028Z,66.14
2016-04-09T02:55:37.624Z,66.14
2016-04-09T02:56:37.643Z,66.14
2016-04-09T02:57:37.630Z,66.71
2016-04-09T02:58:37.616Z,66.52
2016-04-09T02:59:51.714Z,66.52
2016-04-09T03:00:37.872Z,66.61
2016-04-09T03:01:37.625Z,66.71
2016-04-09T03:02:37.612Z,66.42
2016-04-09T03:03:37.615Z,66.61
2016-04-09T03:04:37.602Z,66.61
2016-04-09T03:05:37.620Z,67.46
2016-04-09T03:06:37.607Z,67.18
2016-04-09T03:07:37.610Z,66.52
2016-04-09T03:08:37.628Z,67.18
2016-04-09T03:09:37.615Z,66.89
2016-04-09T03:10:37.618Z,67.37
2016-04-09T03:11:37.854Z,67.46
2016-04-09T03:12:37.623Z,66.71
2016-04-09T03:14:37.613Z,66.99
2016-04-09T03:15:37.601Z,67.08
2016-04-09T03:16:37.650Z,67.56
2016-04-09T03:17:37.606Z,67.08
2016-04-09T03:18:37.795Z,67.46
2016-04-09T03:19:37.611Z,67.27
2016-04-09T03:20:37.598Z,67.37
2016-04-09T03:21:37.616Z,67.08
2016-04-09T03:22:37.619Z,67.46
2016-04-09T03:23:37.621Z,67.08
2016-04-09T03:24:37.593Z,67.27
2016-04-09T03:25:37.611Z,67.37
2016-04-09T03:26:38.036Z,67.65
2016-04-09T03:28:37.619Z,67.46
2016-04-09T03:29:37.591Z,67.56
2016-04-09T03:30:37.594Z,67.85
2016-04-09T03:31:37.799Z,67.18
2016-04-09T03:32:37.599Z,67.56
2016-04-09T03:33:37.602Z,67.85
2016-04-09T03:34:37.604Z,68.32
2016-04-09T03:35:37.639Z,67.94
2016-04-09T03:36:37.610Z,67.75
2016-04-09T03:37:37.629Z,67.94
2016-04-09T03:39:37.587Z,67.56
2016-04-09T03:40:51.887Z,67.56
2016-04-09T03:41:37.592Z,67.85
2016-04-09T03:42:37.610Z,67.94
2016-04-09T03:43:37.582Z,67.46
2016-04-09T03:44:37.584Z,68.23
2016-04-09T03:45:37.587Z,68.13
2016-04-09T03:46:37.573Z,68.13
2016-04-09T03:47:37.608Z,68.41
2016-04-09T03:48:37.595Z,68.7
2016-04-09T03:49:37.582Z,67.85
2016-04-09T03:50:37.585Z,67.65
2016-04-09T03:51:37.572Z,68.13
2016-04-09T03:52:37.590Z,67.85
2016-04-09T03:53:37.811Z,67.75
2016-04-09T03:54:37.580Z,67.85
2016-04-09T03:55:37.583Z,67.94
2016-04-09T03:56:37.569Z,68.04
2016-04-09T03:57:37.572Z,68.04
2016-04-09T03:58:37.574Z,67.65
2016-04-09T03:59:37.577Z,67.85
2016-04-09T04:01:37.568Z,68.19
2016-04-09T04:02:37.571Z,68.32
2016-04-09T04:03:37.589Z,68.66
2016-04-09T04:04:37.763Z,67.65
2016-04-09T04:05:37.563Z,68
2016-04-09T04:06:37.769Z,68.19
2016-04-09T04:07:37.568Z,68.48
2016-04-09T04:08:37.790Z,68.48
2016-04-09T04:09:37.760Z,68.7
2016-04-09T04:10:37.592Z,68.48
2016-04-09T04:11:37.563Z,68.29
2016-04-09T04:12:37.769Z,68.48
2016-04-09T04:13:37.554Z,68.19
2016-04-09T04:14:37.993Z,68.38
2016-04-09T04:15:37.559Z,68.19
2016-04-09T04:16:37.561Z,68.57
2016-04-09T04:17:37.595Z,68.85
2016-04-09T04:18:37.551Z,68.66
2016-04-09T04:19:37.569Z,68.66
2016-04-09T04:20:37.790Z,68.57
2016-04-09T04:21:37.574Z,68.76
2016-04-09T04:22:37.561Z,68
2016-04-09T04:23:37.548Z,68.76
2016-04-09T04:24:37.550Z,68.76
2016-04-09T04:25:37.539Z,68.85
2016-04-09T04:26:37.541Z,68.85
2016-04-09T04:27:37.950Z,68.76
2016-04-09T04:28:37.562Z,68.66
2016-04-09T04:29:37.784Z,68.48
2016-04-09T04:30:37.802Z,68.29
2016-04-09T04:31:37.539Z,68.76
2016-04-09T04:32:37.557Z,68.85
2016-04-09T04:33:37.544Z,68.85
2016-04-09T04:34:37.734Z,68.66
2016-04-09T04:35:37.534Z,68.85
2016-04-09T04:36:37.396Z,68.66
2016-04-09T04:37:37.742Z,68.76
2016-04-09T04:38:37.543Z,68.76
2016-04-09T04:39:37.545Z,68.85
2016-04-09T04:40:37.532Z,68.76
2016-04-09T04:41:37.535Z,68.57
2016-04-09T04:42:51.818Z,68.66
2016-04-09T04:45:37.561Z,68.85
2016-04-09T04:46:37.517Z,68.85
2016-04-09T04:47:37.519Z,69.33
2016-04-09T04:48:37.522Z,69.04
2016-04-09T04:49:37.525Z,68.76
2016-04-09T04:50:37.528Z,68.76
2016-04-09T04:51:37.531Z,68.66
2016-04-09T04:52:37.548Z,68.48
2016-04-09T04:53:37.520Z,68.66
2016-04-09T04:54:37.522Z,68.76
2016-04-09T04:55:37.525Z,68.57
2016-04-09T04:56:37.528Z,68.85
2016-04-09T04:57:37.514Z,68.76
2016-04-09T04:58:37.517Z,68.48
2016-04-09T04:59:37.052Z,68.85
2016-04-09T05:00:37.522Z,68.85
2016-04-09T05:01:37.511Z,69.13
2016-04-09T05:02:37.544Z,68.66
2016-04-09T05:03:37.547Z,68.95
2016-04-09T05:04:37.534Z,69.23
2016-04-09T05:05:37.505Z,69.23
2016-04-09T05:06:37.508Z,69.23
2016-04-09T05:08:37.513Z,69.13
2016-04-09T05:09:37.501Z,69.13
2016-04-09T05:10:37.503Z,69.23
2016-04-09T05:11:37.506Z,69.33
2016-04-09T05:12:37.539Z,69.23
2016-04-09T05:13:37.511Z,69.33
2016-04-09T05:14:37.498Z,69.13
2016-04-09T05:15:37.517Z,69.33
2016-04-09T05:16:37.504Z,69.33
2016-04-09T05:17:37.693Z,69.13
2016-04-09T05:18:37.525Z,69.23
2016-04-09T05:19:37.495Z,68.66
2016-04-09T05:20:37.530Z,68.76
2016-04-09T05:21:37.501Z,69.04
2016-04-09T05:22:37.723Z,68.7
2016-04-09T05:23:37.491Z,68.41
2016-04-09T05:24:37.729Z,68.6
2016-04-09T05:25:37.934Z,68.41
2016-04-09T05:26:37.484Z,68.23
2016-04-09T05:27:37.487Z,68.04
2016-04-09T05:28:37.489Z,68.13
2016-04-09T05:29:37.492Z,68.41
2016-04-09T05:30:37.510Z,68.51
2016-04-09T05:31:37.481Z,68.41
2016-04-09T05:32:37.703Z,68.13
2016-04-09T05:33:37.518Z,68.23
2016-04-09T05:34:37.489Z,68.89
2016-04-09T05:35:37.491Z,68.79
2016-04-09T05:36:37.494Z,68.32
2016-04-09T05:37:37.513Z,68.41
2016-04-09T05:38:37.485Z,68.32
2016-04-09T05:40:37.724Z,68.89
2016-04-09T05:41:37.477Z,69.17
2016-04-09T05:42:37.495Z,69.17
2016-04-09T05:43:37.482Z,69.17
2016-04-09T05:44:37.470Z,69.17
2016-04-09T05:45:37.487Z,69.17
2016-04-09T05:46:37.475Z,68.79
2016-04-09T05:47:37.477Z,68.89
2016-04-09T05:48:37.480Z,69.17
2016-04-09T05:49:37.483Z,68.98
2016-04-09T05:50:37.486Z,68.98
2016-04-09T05:51:37.878Z,68.79
2016-04-09T05:52:37.678Z,69.27
2016-04-09T05:53:37.478Z,69.17
2016-04-09T05:54:51.762Z,69.46
2016-04-09T05:55:37.467Z,69.17
2016-04-09T05:56:37.487Z,68.79
2016-04-09T05:57:37.489Z,68.79
2016-04-09T05:58:37.476Z,68.89
2016-04-09T05:59:37.478Z,68.7
2016-04-09T06:00:37.528Z,68.6
2016-04-09T06:01:37.469Z,68.35
2016-04-09T06:02:37.471Z,68.79
2016-04-09T06:03:37.708Z,68.83
2016-04-09T06:04:37.476Z,68.83
2016-04-09T06:05:37.510Z,68.83
2016-04-09T06:06:37.685Z,68.83
2016-04-09T06:07:37.485Z,68.26
2016-04-09T06:08:37.488Z,68.35
2016-04-09T06:09:37.505Z,68.44
2016-04-09T06:10:37.477Z,68.44
2016-04-09T06:11:37.495Z,68.44
2016-04-09T06:12:37.482Z,68.26
2016-04-09T06:13:37.501Z,67.88
2016-04-09T06:14:37.487Z,68.07
2016-04-09T06:15:37.522Z,67.97
2016-04-09T06:16:37.477Z,67.79
2016-04-09T06:17:37.480Z,67.69
2016-04-09T06:18:37.483Z,67.69
2016-04-09T06:19:37.689Z,67.79
2016-04-09T06:20:37.487Z,67.79
2016-04-09T06:21:37.694Z,67.69
2016-04-09T06:22:37.931Z,68.07
2016-04-09T06:23:37.511Z,67.4
2016-04-09T06:24:37.686Z,67.4
2016-04-09T06:25:37.502Z,67.5
2016-04-09T06:26:37.676Z,66.93
2016-04-09T06:27:37.492Z,67.34
2016-04-09T06:28:37.478Z,67.44
2016-04-09T06:29:37.481Z,67.44
2016-04-09T06:30:37.484Z,67.44
2016-04-09T06:31:51.799Z,67.44
2016-04-09T06:32:37.489Z,67.34
2016-04-09T06:33:37.491Z,67.44
2016-04-09T06:34:37.495Z,67.15
2016-04-09T06:35:37.497Z,67.25
2016-04-09T06:36:37.703Z,67.25
2016-04-09T06:37:37.503Z,66.96
2016-04-09T06:38:37.521Z,66.96
2016-04-09T06:39:37.508Z,67.06
2016-04-09T06:40:37.526Z,67.15
2016-04-09T06:41:37.749Z,66.49
2016-04-09T06:42:37.516Z,66.58
2016-04-09T06:43:37.550Z,66.58
2016-04-09T06:44:37.052Z,66.49
2016-04-09T06:45:37.509Z,66.58
2016-04-09T06:46:37.511Z,65.95
2016-04-09T06:47:37.529Z,65.95
2016-04-09T06:48:37.517Z,66.14
2016-04-09T06:49:37.504Z,66.14
2016-04-09T06:50:37.523Z,66.05
2016-04-09T06:51:37.540Z,65.95
2016-04-09T06:52:37.512Z,65.76
2016-04-09T06:53:37.558Z,65.38
2016-04-09T06:54:37.620Z,65.38
2016-04-09T06:55:37.652Z,65.47
2016-04-09T06:56:37.715Z,64.81
2016-04-09T06:57:37.762Z,65.19
2016-04-09T06:58:37.766Z,65
2016-04-09T06:59:37.800Z,64.9
2016-04-09T07:00:37.819Z,65.19
2016-04-09T07:01:37.821Z,64.81
2016-04-09T07:02:37.871Z,64.34
2016-04-09T07:03:37.865Z,64.24
2016-04-09T07:04:51.951Z,64.24
2016-04-09T07:05:38.334Z,64.05
2016-04-09T07:06:37.874Z,63.57
2016-04-09T07:07:37.882Z,63.48
2016-04-09T07:08:37.903Z,63.39
2016-04-09T07:09:37.439Z,64.34
2016-04-09T07:10:37.897Z,64.37
2016-04-09T07:11:37.902Z,63.48
2016-04-09T07:12:37.938Z,63.7
2016-04-09T07:13:37.910Z,63.42
2016-04-09T07:14:38.118Z,63.42
2016-04-09T07:16:38.313Z,63.32
2016-04-09T07:17:37.925Z,62.94
2016-04-09T07:18:37.928Z,63.32
2016-04-09T07:19:38.118Z,62.94
2016-04-09T07:20:37.933Z,62.56
2016-04-09T07:21:38.139Z,63.04
2016-04-09T07:22:37.938Z,62.27
2016-04-09T07:23:38.160Z,62.37
2016-04-09T07:24:37.943Z,62.27
2016-04-09T07:26:37.980Z,62.18
2016-04-09T07:27:38.374Z,62.18
2016-04-09T07:28:52.064Z,61.71
2016-04-09T07:29:38.004Z,62.21
2016-04-09T07:32:38.027Z,61.45
2016-04-09T07:33:37.984Z,62.02
2016-04-09T07:34:37.970Z,61.64
2016-04-09T07:35:37.989Z,61.16
2016-04-09T07:36:37.976Z,61.45
2016-04-09T07:37:37.994Z,61.26
2016-04-09T07:38:38.059Z,61.45
2016-04-09T07:39:38.203Z,61.55
2016-04-09T07:40:37.987Z,61.64
2016-04-09T07:41:38.005Z,61.55
2016-04-09T07:42:38.195Z,61.35
2016-04-09T07:43:38.011Z,61.35
2016-04-09T07:44:52.092Z,61.35
2016-04-09T07:45:38.017Z,60.97
2016-04-09T07:46:38.019Z,61.26
2016-04-09T07:47:38.022Z,61.07
2016-04-09T07:48:38.024Z,60.69
2016-04-09T07:49:38.230Z,61.19
2016-04-09T07:50:38.030Z,60.63
2016-04-09T07:51:38.047Z,61
2016-04-09T07:52:38.035Z,61.19
2016-04-09T07:53:38.068Z,61.1
2016-04-09T07:54:38.055Z,60.24
2016-04-09T07:55:38.043Z,60.15
2016-04-09T07:56:38.046Z,60.24
2016-04-09T07:57:38.079Z,60.24
2016-04-09T07:58:38.097Z,60.24
2016-04-09T07:59:38.069Z,60.34
2016-04-09T08:00:52.259Z,60.34
2016-04-09T08:01:38.074Z,59.67
2016-04-09T08:02:38.076Z,59.86
2016-04-09T08:03:38.095Z,59.86
2016-04-09T08:04:38.082Z,59.1
2016-04-09T08:05:38.101Z,59.67
2016-04-09T08:06:38.104Z,59.89
2016-04-09T08:07:38.512Z,58.65
2016-04-09T08:08:38.140Z,58.15
2016-04-09T08:09:38.112Z,58.84
2016-04-09T08:10:38.334Z,59.13
2016-04-09T08:11:38.336Z,58.75
2016-04-09T08:12:38.151Z,58.94
2016-04-09T08:13:38.138Z,59.03
2016-04-09T08:14:38.156Z,58.28
2016-04-09T08:15:38.378Z,58.65
2016-04-09T08:16:38.334Z,58.47
2016-04-09T08:17:37.992Z,58.56
2016-04-09T08:18:38.183Z,58.28
2016-04-09T08:19:38.154Z,58.18
2016-04-09T08:20:38.156Z,58.08
2016-04-09T08:21:38.409Z,57.51
2016-04-09T08:22:38.178Z,57.6
2016-04-09T08:23:38.181Z,57.6
2016-04-09T08:24:38.214Z,57.42
2016-04-09T08:25:38.186Z,56.27
2016-04-09T08:26:38.189Z,56.49
2016-04-09T08:27:38.441Z,56.59
2016-04-09T08:28:38.210Z,55.92
2016-04-09T08:29:52.305Z,55.73
2016-04-09T08:30:38.212Z,56.02
2016-04-09T08:31:38.215Z,55.92
2016-04-09T08:32:38.265Z,55.26
2016-04-09T08:33:38.221Z,54.78
2016-04-09T08:34:38.223Z,54.49
2016-04-09T08:35:38.694Z,54.49
2016-04-09T08:36:38.493Z,54.68
2016-04-09T08:37:38.263Z,55.16
2016-04-09T08:38:38.484Z,55.26
2016-04-09T08:39:38.455Z,55.63
2016-04-09T08:40:38.442Z,56.02
2016-04-09T08:41:38.289Z,55.54
2016-04-09T08:42:38.276Z,55.92
2016-04-09T08:43:38.498Z,55.26
2016-04-09T08:44:38.343Z,55.16
2016-04-09T08:45:38.487Z,55.54
2016-04-09T08:46:38.334Z,55.44
2016-04-09T08:47:38.305Z,54.78
2016-04-09T08:48:38.308Z,54.78
2016-04-09T08:49:38.436Z,55.28
2016-04-09T08:50:38.329Z,54.9
2016-04-09T08:51:38.331Z,55.19
2016-04-09T08:53:38.353Z,55
2016-04-09T08:54:38.542Z,53.66
2016-04-09T08:55:38.373Z,53.76
2016-04-09T08:56:38.361Z,54.43
2016-04-09T08:57:38.363Z,54.14
2016-04-09T08:58:38.366Z,53.47
2016-04-09T08:59:38.384Z,52.33
2016-04-09T09:00:38.371Z,51.18
2016-04-09T09:01:38.388Z,51.18
2016-04-09T09:02:38.408Z,52.04
2016-04-09T09:03:38.801Z,53
2016-04-09T09:04:38.147Z,53.38
2016-04-09T09:05:38.416Z,52.64
2016-04-09T09:06:38.435Z,52.36
2016-04-09T09:07:38.452Z,51.88
2016-04-09T09:08:38.441Z,50.71
2016-04-09T09:09:52.946Z,50.35
2016-04-09T09:10:52.746Z,50.26
2016-04-09T09:11:52.749Z,51.12
2016-04-09T09:12:38.483Z,51.88
2016-04-09T09:13:38.485Z,50.45
2016-04-09T09:14:38.863Z,51.31
2016-04-09T09:15:38.491Z,52.36
2016-04-09T09:16:38.493Z,51.5
2016-04-09T09:17:38.496Z,50.54
2016-04-09T09:18:38.748Z,51.31
2016-04-09T09:19:38.501Z,50.54
2016-04-09T09:20:38.535Z,50.73
2016-04-09T09:21:52.821Z,49.4
2016-04-09T09:22:38.728Z,49.4
2016-04-09T09:23:38.543Z,49.78
2016-04-09T09:24:38.546Z,50.73
2016-04-09T09:25:38.783Z,49.97
2016-04-09T09:26:38.754Z,50.63
2016-04-09T09:27:38.601Z,50.83
2016-04-09T09:28:38.572Z,51.21
2016-04-09T09:29:38.809Z,49.97
2016-04-09T09:30:38.781Z,50.73
2016-04-09T09:31:38.596Z,50.63
2016-04-09T09:32:53.117Z,50.26
2016-04-09T09:33:38.851Z,49.97
2016-04-09T09:35:39.028Z,49.49
2016-04-09T09:36:39.078Z,50.45
2016-04-09T09:37:38.628Z,51.14
2016-04-09T09:38:38.849Z,49.33
2016-04-09T09:39:38.664Z,49.52
2016-04-09T09:40:38.902Z,50.47
2016-04-09T09:41:38.669Z,50.28
2016-04-09T09:42:52.769Z,50.18
2016-04-09T09:43:38.675Z,50.09
2016-04-09T09:44:38.693Z,49.33
2016-04-09T09:45:38.883Z,50.09
2016-04-09T09:46:38.730Z,50.57
2016-04-09T09:47:38.718Z,49.9
2016-04-09T09:48:38.938Z,50.18
2016-04-09T09:49:38.898Z,50.28
2016-04-09T09:50:38.729Z,49.44
2016-04-09T09:51:38.576Z,48.59
2016-04-09T09:52:38.903Z,47.63
2016-04-09T09:53:38.749Z,47.61
2016-04-09T09:54:38.752Z,47.54
2016-04-09T09:55:38.786Z,47.73
2016-04-09T09:56:52.855Z,48.3
2016-04-09T09:57:38.792Z,48.97
2016-04-09T09:58:38.810Z,49.26
2016-04-09T09:59:38.813Z,48.39
2016-04-09T10:02:38.853Z,46.87
2016-04-09T10:03:38.841Z,47.06
2016-04-09T10:05:38.861Z,47.63
2016-04-09T10:06:38.880Z,47.16
2016-04-09T10:07:38.851Z,46.58
2016-04-09T10:08:38.855Z,47.06
2016-04-09T10:09:38.888Z,47.18
2016-04-09T10:10:38.875Z,47.18
2016-04-09T10:11:38.894Z,45.56
2016-04-09T10:12:38.896Z,43.65
2016-04-09T10:13:38.913Z,43.82
2016-04-09T10:15:38.905Z,45.92
2016-04-09T10:16:38.954Z,45.94
2016-04-09T10:17:38.956Z,45.17
2016-04-09T10:18:39.147Z,45.17
2016-04-09T10:20:38.949Z,46.03
2016-04-09T10:21:38.983Z,46.42
2016-04-09T10:22:39.188Z,45.17
2016-04-09T10:23:38.988Z,45.08
2016-04-09T10:24:38.990Z,45.75
2016-04-09T10:25:39.196Z,45.17
2016-04-09T10:26:39.012Z,44.6
2016-04-09T10:27:39.015Z,44.7
2016-04-09T10:28:39.237Z,43.55
2016-04-09T10:29:39.036Z,43.84
2016-04-09T10:30:39.038Z,42.11
2016-04-09T10:31:39.041Z,41.35
2016-04-09T10:32:39.262Z,41.83
2016-04-09T10:33:39.265Z,42.88
2016-04-09T10:34:39.080Z,43.46
2016-04-09T10:35:39.489Z,43.46
2016-04-09T10:36:39.086Z,43.26
2016-04-09T10:37:39.495Z,43.36
2016-04-09T10:38:39.107Z,43.07
2016-04-09T10:39:39.109Z,42.21
2016-04-09T10:40:39.127Z,42.5
2016-04-09T10:41:39.131Z,41.45
2016-04-09T10:42:39.149Z,41.16
2016-04-09T10:43:39.152Z,42.11
2016-04-09T10:44:39.155Z,42.88
2016-04-09T10:45:39.157Z,40.52
2016-04-09T10:46:39.175Z,41.26
2016-04-09T10:47:39.177Z,40.99
2016-04-09T10:48:39.196Z,39.35
2016-04-09T10:49:39.199Z,38.78
2016-04-09T10:50:39.202Z,38.78
2016-04-09T10:51:59.394Z,38.01
2016-04-09T10:52:39.238Z,38.3
2016-04-09T10:53:39.240Z,38.78
2016-04-09T10:54:39.243Z,37.82
2016-04-09T10:55:39.262Z,36.96
2016-04-09T10:56:39.265Z,39.35
2016-04-09T10:57:39.143Z,39.35
2016-04-09T10:58:39.317Z,40.2
2016-04-09T10:59:39.553Z,38.68
2016-04-09T11:00:39.665Z,38.96
2016-04-09T11:01:53.793Z,38.78
2016-04-09T11:02:39.312Z,39.94
2016-04-09T11:03:39.628Z,37.73
2016-04-09T11:04:39.474Z,37.73
2016-04-09T11:05:39.336Z,37.24
2016-04-09T11:06:39.369Z,36.39
2016-04-09T11:07:39.356Z,36.87
2016-04-09T11:08:39.359Z,36.96
2016-04-09T11:09:39.487Z,35.72
2016-04-09T11:10:39.380Z,36.29
2016-04-09T11:11:39.400Z,35.43
2016-04-09T11:12:39.416Z,35.43
2016-04-09T11:13:39.575Z,37.24
2016-04-09T11:14:39.422Z,37.15
2016-04-09T11:15:39.644Z,36.96
2016-04-09T11:16:40.069Z,35.82
2016-04-09T11:17:39.446Z,35.14
2016-04-09T11:18:39.621Z,34.38
2016-04-09T11:19:39.482Z,34.28
2016-04-09T11:20:39.673Z,34.19
2016-04-09T11:21:39.676Z,35.13
2016-04-09T11:22:39.491Z,36.18
2016-04-09T11:23:39.634Z,36.19
2016-04-09T11:24:39.699Z,35.24
2016-04-09T11:25:39.515Z,36.08
2016-04-09T11:26:40.127Z,35.82
2016-04-09T11:27:39.660Z,36.39
2016-04-09T11:28:39.538Z,35.05
2016-04-09T11:29:39.541Z,35.05
2016-04-09T11:30:39.543Z,35.24
2016-04-09T11:31:39.562Z,35.05
2016-04-09T11:32:39.737Z,34.95
2016-04-09T11:33:39.583Z,33.81
2016-04-09T11:34:39.601Z,34.09
2016-04-09T11:35:39.603Z,34.57
2016-04-09T11:36:39.701Z,35.43
2016-04-09T11:37:39.609Z,35.43
2016-04-09T11:38:39.611Z,35.82
2016-04-09T11:39:40.020Z,34.48
2016-04-09T11:40:39.633Z,34.46
2016-04-09T11:41:39.650Z,36.19
2016-04-09T11:42:39.653Z,36.87
2016-04-09T11:43:39.656Z,35.91
2016-04-09T11:44:39.675Z,35.83
2016-04-09T11:45:39.677Z,34.59
2016-04-09T11:46:39.883Z,35.26
2016-04-09T11:47:40.933Z,35.55
2016-04-09T11:48:39.701Z,34.59
2016-04-09T11:49:39.719Z,34.4
2016-04-09T11:50:39.707Z,34.4
2016-04-09T11:51:39.724Z,34.2
2016-04-09T11:52:39.743Z,34.01
2016-04-09T11:53:39.746Z,33.75
2016-04-09T11:54:40.217Z,35.26
2016-04-09T11:55:39.813Z,33.07
2016-04-09T11:56:53.863Z,34.11
2016-04-09T11:57:39.818Z,33.07
2016-04-09T11:58:40.025Z,33.94
2016-04-09T11:59:54.106Z,34.42
2016-04-09T12:00:39.796Z,32.41
2016-04-09T12:01:40.033Z,33.84
2016-04-09T12:03:39.835Z,35.28
2016-04-09T12:04:39.853Z,33.36
2016-04-09T12:06:39.890Z,32.79
2016-04-09T12:07:39.877Z,32.71
2016-04-09T12:08:39.880Z,32.23
2016-04-09T12:09:39.914Z,33.09
2016-04-09T12:10:39.932Z,32.12
2016-04-09T12:11:40.122Z,31.45
2016-04-09T12:12:39.922Z,32.6
2016-04-09T12:13:39.940Z,31.45
2016-04-09T12:14:39.943Z,31.84
2016-04-09T12:15:39.961Z,33.56
2016-04-09T12:16:39.964Z,33.75
2016-04-09T12:17:40.169Z,32.6
2016-04-09T12:19:40.207Z,32.6
2016-04-09T12:20:39.990Z,33.56
2016-04-09T12:21:40.008Z,33.75
2016-04-09T12:22:40.027Z,34.32
2016-04-09T12:23:40.232Z,33.56
2016-04-09T12:24:40.235Z,34.32
2016-04-09T12:25:40.254Z,34.51
2016-04-09T12:26:40.256Z,32.98
2016-04-09T12:27:40.071Z,33.09
2016-04-09T12:28:40.059Z,32.71
2016-04-09T12:29:40.077Z,32.71
2016-04-09T12:30:40.095Z,31.56
2016-04-09T12:31:40.301Z,32.14
2016-04-09T12:32:40.117Z,32.62
2016-04-09T12:33:40.135Z,32.73
2016-04-09T12:34:40.169Z,33.69
2016-04-09T12:35:54.234Z,31.96
2016-04-09T12:36:40.174Z,31.37
2016-04-09T12:37:40.161Z,32.71
2016-04-09T12:38:54.476Z,31.85
2016-04-09T12:40:40.217Z,31.93
2016-04-09T12:41:40.437Z,32.7
2016-04-09T12:42:40.252Z,31.84
2016-04-09T12:43:40.458Z,33.56
2016-04-09T12:45:40.261Z,33.57
2016-04-09T12:46:40.264Z,33.95
2016-04-09T12:47:40.267Z,33.19
2016-04-09T12:48:40.285Z,33.67
2016-04-09T12:49:40.271Z,33
2016-04-09T12:50:40.290Z,32.62
2016-04-09T12:51:40.496Z,31.95
2016-04-09T12:52:40.514Z,32.14
2016-04-09T12:53:40.517Z,31.66
2016-04-09T12:54:40.317Z,31.74
2016-04-09T12:55:40.554Z,31.27
2016-04-09T12:56:40.368Z,31.37
2016-04-09T12:57:40.355Z,31.93
2016-04-09T12:58:40.577Z,31.93
2016-04-09T12:59:40.393Z,32.62
2016-04-09T13:00:40.395Z,32.71
2016-04-09T13:01:40.398Z,33.07
2016-04-09T13:02:40.463Z,32.41
2016-04-09T13:03:40.418Z,32.41
2016-04-09T13:04:40.437Z,32.62
2016-04-09T13:05:40.471Z,32.42
2016-04-09T13:06:40.443Z,32.42
2016-04-09T13:08:40.448Z,33.09
2016-04-09T13:09:40.466Z,33.09
2016-04-09T13:10:40.484Z,33.19
2016-04-09T13:11:40.487Z,32.12
2016-04-09T13:12:40.506Z,32.5
2016-04-09T13:13:40.509Z,33.07
2016-04-09T13:15:40.779Z,32.89
2016-04-09T13:17:40.597Z,34.51
2016-04-09T13:18:40.552Z,34.24
2016-04-09T13:19:40.571Z,35.1
2016-04-09T13:20:40.574Z,34.05
2016-04-09T13:21:40.608Z,32.71
2016-04-09T13:22:40.595Z,32.71
2016-04-09T13:23:40.629Z,31.47
2016-04-09T13:24:40.616Z,31.27
2016-04-09T13:25:40.650Z,31.85
2016-04-09T13:26:40.621Z,32.71
2016-04-09T13:27:41.061Z,31.85
2016-04-09T13:28:40.845Z,31.09
2016-04-09T13:29:40.661Z,31.95
2016-04-09T13:30:40.882Z,33.95
2016-04-09T13:31:40.697Z,32.81
2016-04-09T13:32:40.684Z,31.76